sensor_id;sensor_type;location;lat;lon;timestamp;P1;durP1;ratioP1;P2;durP2;ratioP2
6354;SDS011;3210;48.708;9.030;2022-07-22T00:01:31;9.17;;;5.13;;
6354;SDS011;3210;48.708;9.030;2022-07-22T00:03:59;6.00;;;5.50;;
6354;SDS011;3210;48.708;9.030;2022-07-22T00:06:27;6.87;;;5.17;;
6354;SDS011;3210;48.708;9.030;2022-07-22T00:08:54;9.70;;;4.90;;
6354;SDS011;3210;48.708;9.030;2022-07-22T00:11:22;7.13;;;5.47;;
6354;SDS011;3210;48.708;9.030;2022-07-22T00:13:49;7.77;;;5.20;;
6354;SDS011;3210;48.708;9.030;2022-07-22T00:16:16;9.27;;;6.83;;
6354;SDS011;3210;48.708;9.030;2022-07-22T00:18:42;13.70;;;5.13;;
6354;SDS011;3210;48.708;9.030;2022-07-22T00:21:11;7.77;;;5.03;;
6354;SDS011;3210;48.708;9.030;2022-07-22T00:23:38;7.00;;;4.33;;
6354;SDS011;3210;48.708;9.030;2022-07-22T00:26:04;5.73;;;4.97;;
6354;SDS011;3210;48.708;9.030;2022-07-22T00:28:31;10.10;;;5.70;;
6354;SDS011;3210;48.708;9.030;2022-07-22T00:30:58;8.27;;;5.20;;
6354;SDS011;3210;48.708;9.030;2022-07-22T00:33:25;7.10;;;5.20;;
6354;SDS011;3210;48.708;9.030;2022-07-22T00:35:52;8.00;;;5.17;;
6354;SDS011;3210;48.708;9.030;2022-07-22T00:38:20;7.30;;;5.80;;
6354;SDS011;3210;48.708;9.030;2022-07-22T00:40:46;9.80;;;5.47;;
6354;SDS011;3210;48.708;9.030;2022-07-22T00:43:13;8.60;;;5.43;;
6354;SDS011;3210;48.708;9.030;2022-07-22T00:45:40;9.17;;;5.40;;
6354;SDS011;3210;48.708;9.030;2022-07-22T00:48:07;6.27;;;5.40;;
6354;SDS011;3210;48.708;9.030;2022-07-22T00:50:34;11.97;;;6.37;;
6354;SDS011;3210;48.708;9.030;2022-07-22T00:53:00;15.03;;;4.97;;
6354;SDS011;3210;48.708;9.030;2022-07-22T00:55:30;5.30;;;4.43;;
6354;SDS011;3210;48.708;9.030;2022-07-22T00:57:59;6.80;;;5.40;;
6354;SDS011;3210;48.708;9.030;2022-07-22T01:00:26;7.00;;;5.40;;
6354;SDS011;3210;48.708;9.030;2022-07-22T01:02:53;8.20;;;5.37;;
6354;SDS011;3210;48.708;9.030;2022-07-22T01:05:20;8.57;;;6.17;;
6354;SDS011;3210;48.708;9.030;2022-07-22T01:07:47;7.13;;;5.80;;
6354;SDS011;3210;48.708;9.030;2022-07-22T01:10:14;8.70;;;6.10;;
6354;SDS011;3210;48.708;9.030;2022-07-22T01:12:42;6.90;;;6.20;;
6354;SDS011;3210;48.708;9.030;2022-07-22T01:15:09;10.07;;;5.53;;
6354;SDS011;3210;48.708;9.030;2022-07-22T01:17:36;6.23;;;5.33;;
6354;SDS011;3210;48.708;9.030;2022-07-22T01:20:05;8.53;;;5.80;;
6354;SDS011;3210;48.708;9.030;2022-07-22T01:22:34;6.83;;;5.90;;
6354;SDS011;3210;48.708;9.030;2022-07-22T01:25:00;8.03;;;6.30;;
6354;SDS011;3210;48.708;9.030;2022-07-22T01:27:27;6.60;;;5.50;;
6354;SDS011;3210;48.708;9.030;2022-07-22T01:29:54;15.97;;;5.83;;
6354;SDS011;3210;48.708;9.030;2022-07-22T01:32:21;7.87;;;5.90;;
6354;SDS011;3210;48.708;9.030;2022-07-22T01:34:48;11.47;;;6.20;;
6354;SDS011;3210;48.708;9.030;2022-07-22T01:37:16;8.77;;;5.40;;
6354;SDS011;3210;48.708;9.030;2022-07-22T01:39:43;11.30;;;6.00;;
6354;SDS011;3210;48.708;9.030;2022-07-22T01:42:10;8.57;;;6.20;;
6354;SDS011;3210;48.708;9.030;2022-07-22T01:44:36;8.03;;;6.90;;
6354;SDS011;3210;48.708;9.030;2022-07-22T01:47:04;9.17;;;5.90;;
6354;SDS011;3210;48.708;9.030;2022-07-22T01:49:31;9.53;;;5.47;;
6354;SDS011;3210;48.708;9.030;2022-07-22T01:51:58;8.83;;;6.10;;
6354;SDS011;3210;48.708;9.030;2022-07-22T01:54:26;6.40;;;5.57;;
6354;SDS011;3210;48.708;9.030;2022-07-22T01:56:53;6.97;;;5.63;;
6354;SDS011;3210;48.708;9.030;2022-07-22T01:59:20;9.47;;;6.40;;
6354;SDS011;3210;48.708;9.030;2022-07-22T02:01:47;8.47;;;5.43;;
6354;SDS011;3210;48.708;9.030;2022-07-22T02:04:14;10.53;;;6.13;;
6354;SDS011;3210;48.708;9.030;2022-07-22T02:06:41;11.63;;;6.43;;
6354;SDS011;3210;48.708;9.030;2022-07-22T02:09:07;7.90;;;5.13;;
6354;SDS011;3210;48.708;9.030;2022-07-22T02:11:35;8.23;;;6.57;;
6354;SDS011;3210;48.708;9.030;2022-07-22T02:14:02;7.10;;;5.57;;
6354;SDS011;3210;48.708;9.030;2022-07-22T02:16:29;7.80;;;5.20;;
6354;SDS011;3210;48.708;9.030;2022-07-22T02:18:56;6.30;;;5.60;;
6354;SDS011;3210;48.708;9.030;2022-07-22T02:21:23;7.60;;;6.67;;
6354;SDS011;3210;48.708;9.030;2022-07-22T02:23:50;9.43;;;6.40;;
6354;SDS011;3210;48.708;9.030;2022-07-22T02:26:16;13.40;;;7.00;;
6354;SDS011;3210;48.708;9.030;2022-07-22T02:28:44;6.90;;;6.00;;
6354;SDS011;3210;48.708;9.030;2022-07-22T02:31:12;6.10;;;5.50;;
6354;SDS011;3210;48.708;9.030;2022-07-22T02:33:38;7.77;;;6.20;;
6354;SDS011;3210;48.708;9.030;2022-07-22T02:36:05;6.67;;;5.93;;
6354;SDS011;3210;48.708;9.030;2022-07-22T02:38:32;9.33;;;6.43;;
6354;SDS011;3210;48.708;9.030;2022-07-22T02:40:59;10.23;;;6.60;;
6354;SDS011;3210;48.708;9.030;2022-07-22T02:43:26;7.57;;;6.60;;
6354;SDS011;3210;48.708;9.030;2022-07-22T02:45:54;9.17;;;7.57;;
6354;SDS011;3210;48.708;9.030;2022-07-22T02:48:21;7.73;;;6.40;;
6354;SDS011;3210;48.708;9.030;2022-07-22T02:50:48;9.00;;;6.47;;
6354;SDS011;3210;48.708;9.030;2022-07-22T02:53:15;8.10;;;6.77;;
6354;SDS011;3210;48.708;9.030;2022-07-22T02:55:41;14.13;;;6.97;;
6354;SDS011;3210;48.708;9.030;2022-07-22T02:58:08;11.43;;;6.53;;
6354;SDS011;3210;48.708;9.030;2022-07-22T03:00:36;11.30;;;6.23;;
6354;SDS011;3210;48.708;9.030;2022-07-22T03:03:05;11.33;;;6.17;;
6354;SDS011;3210;48.708;9.030;2022-07-22T03:05:31;8.80;;;7.17;;
6354;SDS011;3210;48.708;9.030;2022-07-22T03:07:58;10.90;;;6.60;;
6354;SDS011;3210;48.708;9.030;2022-07-22T03:10:25;9.43;;;5.90;;
6354;SDS011;3210;48.708;9.030;2022-07-22T03:12:52;10.27;;;7.00;;
6354;SDS011;3210;48.708;9.030;2022-07-22T03:15:19;9.07;;;6.77;;
6354;SDS011;3210;48.708;9.030;2022-07-22T03:17:46;7.87;;;6.40;;
6354;SDS011;3210;48.708;9.030;2022-07-22T03:20:14;9.40;;;6.67;;
6354;SDS011;3210;48.708;9.030;2022-07-22T03:22:40;9.07;;;6.50;;
6354;SDS011;3210;48.708;9.030;2022-07-22T03:25:08;9.67;;;6.67;;
6354;SDS011;3210;48.708;9.030;2022-07-22T03:27:36;12.23;;;6.37;;
6354;SDS011;3210;48.708;9.030;2022-07-22T03:30:03;10.83;;;7.50;;
6354;SDS011;3210;48.708;9.030;2022-07-22T03:32:30;6.50;;;5.70;;
6354;SDS011;3210;48.708;9.030;2022-07-22T03:34:57;8.40;;;6.57;;
6354;SDS011;3210;48.708;9.030;2022-07-22T03:37:25;7.03;;;6.33;;
6354;SDS011;3210;48.708;9.030;2022-07-22T03:39:52;9.50;;;6.60;;
6354;SDS011;3210;48.708;9.030;2022-07-22T03:42:19;8.93;;;6.60;;
6354;SDS011;3210;48.708;9.030;2022-07-22T03:44:46;8.60;;;6.60;;
6354;SDS011;3210;48.708;9.030;2022-07-22T03:47:16;10.47;;;7.40;;
6354;SDS011;3210;48.708;9.030;2022-07-22T03:49:44;9.37;;;7.30;;
6354;SDS011;3210;48.708;9.030;2022-07-22T03:52:10;12.80;;;7.10;;
6354;SDS011;3210;48.708;9.030;2022-07-22T03:54:39;13.20;;;7.50;;
6354;SDS011;3210;48.708;9.030;2022-07-22T03:57:06;8.07;;;7.20;;
6354;SDS011;3210;48.708;9.030;2022-07-22T03:59:33;11.07;;;7.47;;
6354;SDS011;3210;48.708;9.030;2022-07-22T04:01:59;8.63;;;7.03;;
6354;SDS011;3210;48.708;9.030;2022-07-22T04:04:26;9.43;;;7.20;;
6354;SDS011;3210;48.708;9.030;2022-07-22T04:06:53;8.87;;;6.90;;
6354;SDS011;3210;48.708;9.030;2022-07-22T04:09:20;9.27;;;7.33;;
6354;SDS011;3210;48.708;9.030;2022-07-22T04:11:48;9.90;;;8.20;;
6354;SDS011;3210;48.708;9.030;2022-07-22T04:14:15;7.80;;;6.13;;
6354;SDS011;3210;48.708;9.030;2022-07-22T04:16:42;11.50;;;5.97;;
6354;SDS011;3210;48.708;9.030;2022-07-22T04:19:09;12.17;;;8.10;;
6354;SDS011;3210;48.708;9.030;2022-07-22T04:21:36;9.23;;;7.37;;
6354;SDS011;3210;48.708;9.030;2022-07-22T04:24:03;7.60;;;6.77;;
6354;SDS011;3210;48.708;9.030;2022-07-22T04:26:31;11.63;;;8.23;;
6354;SDS011;3210;48.708;9.030;2022-07-22T04:28:59;13.80;;;7.27;;
6354;SDS011;3210;48.708;9.030;2022-07-22T04:31:26;12.57;;;6.93;;
6354;SDS011;3210;48.708;9.030;2022-07-22T04:33:53;14.03;;;8.60;;
6354;SDS011;3210;48.708;9.030;2022-07-22T04:36:19;8.77;;;7.20;;
6354;SDS011;3210;48.708;9.030;2022-07-22T04:38:46;9.90;;;7.33;;
6354;SDS011;3210;48.708;9.030;2022-07-22T04:41:13;9.13;;;7.70;;
6354;SDS011;3210;48.708;9.030;2022-07-22T04:43:40;11.40;;;8.03;;
6354;SDS011;3210;48.708;9.030;2022-07-22T04:46:08;9.27;;;7.77;;
6354;SDS011;3210;48.708;9.030;2022-07-22T04:48:35;10.10;;;7.03;;
6354;SDS011;3210;48.708;9.030;2022-07-22T04:51:02;13.47;;;8.70;;
6354;SDS011;3210;48.708;9.030;2022-07-22T04:53:29;12.47;;;8.07;;
6354;SDS011;3210;48.708;9.030;2022-07-22T04:55:56;14.00;;;8.03;;
6354;SDS011;3210;48.708;9.030;2022-07-22T04:58:23;9.03;;;7.57;;
6354;SDS011;3210;48.708;9.030;2022-07-22T05:00:50;10.10;;;8.30;;
6354;SDS011;3210;48.708;9.030;2022-07-22T05:03:18;10.63;;;7.33;;
6354;SDS011;3210;48.708;9.030;2022-07-22T05:05:45;7.77;;;6.73;;
6354;SDS011;3210;48.708;9.030;2022-07-22T05:08:12;16.53;;;8.57;;
6354;SDS011;3210;48.708;9.030;2022-07-22T05:10:38;20.20;;;8.70;;
6354;SDS011;3210;48.708;9.030;2022-07-22T05:13:05;11.90;;;7.70;;
6354;SDS011;3210;48.708;9.030;2022-07-22T05:15:32;12.27;;;7.43;;
6354;SDS011;3210;48.708;9.030;2022-07-22T05:17:59;10.07;;;8.17;;
6354;SDS011;3210;48.708;9.030;2022-07-22T05:20:27;13.90;;;7.57;;
6354;SDS011;3210;48.708;9.030;2022-07-22T05:22:54;12.93;;;8.20;;
6354;SDS011;3210;48.708;9.030;2022-07-22T05:25:21;13.87;;;7.00;;
6354;SDS011;3210;48.708;9.030;2022-07-22T05:27:51;9.20;;;8.20;;
6354;SDS011;3210;48.708;9.030;2022-07-22T05:30:19;12.23;;;7.90;;
6354;SDS011;3210;48.708;9.030;2022-07-22T05:32:46;17.90;;;7.67;;
6354;SDS011;3210;48.708;9.030;2022-07-22T05:35:13;11.40;;;8.90;;
6354;SDS011;3210;48.708;9.030;2022-07-22T05:37:41;11.33;;;7.30;;
6354;SDS011;3210;48.708;9.030;2022-07-22T05:40:08;9.57;;;7.20;;
6354;SDS011;3210;48.708;9.030;2022-07-22T05:42:35;13.10;;;8.17;;
6354;SDS011;3210;48.708;9.030;2022-07-22T05:45:02;9.93;;;8.20;;
6354;SDS011;3210;48.708;9.030;2022-07-22T05:47:30;14.53;;;8.27;;
6354;SDS011;3210;48.708;9.030;2022-07-22T05:49:57;11.10;;;7.80;;
6354;SDS011;3210;48.708;9.030;2022-07-22T05:52:24;15.50;;;8.60;;
6354;SDS011;3210;48.708;9.030;2022-07-22T05:54:52;10.27;;;8.67;;
6354;SDS011;3210;48.708;9.030;2022-07-22T05:57:18;13.07;;;8.63;;
6354;SDS011;3210;48.708;9.030;2022-07-22T05:59:45;12.80;;;8.30;;
6354;SDS011;3210;48.708;9.030;2022-07-22T06:02:12;14.63;;;8.90;;
6354;SDS011;3210;48.708;9.030;2022-07-22T06:04:39;12.10;;;8.57;;
6354;SDS011;3210;48.708;9.030;2022-07-22T06:07:06;13.43;;;8.60;;
6354;SDS011;3210;48.708;9.030;2022-07-22T06:09:32;10.80;;;8.10;;
6354;SDS011;3210;48.708;9.030;2022-07-22T06:12:01;13.60;;;7.40;;
6354;SDS011;3210;48.708;9.030;2022-07-22T06:14:27;10.97;;;8.00;;
6354;SDS011;3210;48.708;9.030;2022-07-22T06:16:54;12.50;;;8.00;;
6354;SDS011;3210;48.708;9.030;2022-07-22T06:19:21;9.27;;;7.47;;
6354;SDS011;3210;48.708;9.030;2022-07-22T06:21:49;11.33;;;7.97;;
6354;SDS011;3210;48.708;9.030;2022-07-22T06:24:16;12.43;;;8.20;;
6354;SDS011;3210;48.708;9.030;2022-07-22T06:26:43;7.87;;;6.80;;
6354;SDS011;3210;48.708;9.030;2022-07-22T06:29:11;8.73;;;7.73;;
6354;SDS011;3210;48.708;9.030;2022-07-22T06:31:38;10.67;;;7.60;;
6354;SDS011;3210;48.708;9.030;2022-07-22T06:34:05;9.37;;;7.10;;
6354;SDS011;3210;48.708;9.030;2022-07-22T06:36:32;8.47;;;6.60;;
6354;SDS011;3210;48.708;9.030;2022-07-22T06:38:59;11.80;;;7.57;;
6354;SDS011;3210;48.708;9.030;2022-07-22T06:41:26;9.37;;;7.70;;
6354;SDS011;3210;48.708;9.030;2022-07-22T06:43:53;11.73;;;7.43;;
6354;SDS011;3210;48.708;9.030;2022-07-22T06:46:22;10.10;;;8.77;;
6354;SDS011;3210;48.708;9.030;2022-07-22T06:48:49;10.77;;;7.90;;
6354;SDS011;3210;48.708;9.030;2022-07-22T06:51:16;9.67;;;8.00;;
6354;SDS011;3210;48.708;9.030;2022-07-22T06:53:43;8.23;;;6.90;;
6354;SDS011;3210;48.708;9.030;2022-07-22T06:56:09;16.40;;;7.33;;
6354;SDS011;3210;48.708;9.030;2022-07-22T06:58:37;13.47;;;6.90;;
6354;SDS011;3210;48.708;9.030;2022-07-22T07:01:04;11.80;;;7.33;;
6354;SDS011;3210;48.708;9.030;2022-07-22T07:03:32;9.57;;;7.10;;
6354;SDS011;3210;48.708;9.030;2022-07-22T07:05:59;9.87;;;7.30;;
6354;SDS011;3210;48.708;9.030;2022-07-22T07:08:25;13.87;;;8.00;;
6354;SDS011;3210;48.708;9.030;2022-07-22T07:10:52;15.07;;;8.53;;
6354;SDS011;3210;48.708;9.030;2022-07-22T07:13:19;14.67;;;7.40;;
6354;SDS011;3210;48.708;9.030;2022-07-22T07:15:46;9.53;;;7.33;;
6354;SDS011;3210;48.708;9.030;2022-07-22T07:18:12;10.07;;;7.50;;
6354;SDS011;3210;48.708;9.030;2022-07-22T07:20:41;9.83;;;7.20;;
6354;SDS011;3210;48.708;9.030;2022-07-22T07:23:07;8.00;;;6.90;;
6354;SDS011;3210;48.708;9.030;2022-07-22T07:25:34;8.53;;;6.93;;
6354;SDS011;3210;48.708;9.030;2022-07-22T07:28:01;10.47;;;7.70;;
6354;SDS011;3210;48.708;9.030;2022-07-22T07:30:28;11.20;;;6.90;;
6354;SDS011;3210;48.708;9.030;2022-07-22T07:32:55;9.30;;;6.67;;
6354;SDS011;3210;48.708;9.030;2022-07-22T07:35:22;12.73;;;6.97;;
6354;SDS011;3210;48.708;9.030;2022-07-22T07:37:50;14.83;;;6.73;;
6354;SDS011;3210;48.708;9.030;2022-07-22T07:40:16;12.53;;;7.60;;
6354;SDS011;3210;48.708;9.030;2022-07-22T07:42:44;7.60;;;6.53;;
6354;SDS011;3210;48.708;9.030;2022-07-22T07:45:11;7.67;;;6.00;;
6354;SDS011;3210;48.708;9.030;2022-07-22T07:47:38;8.20;;;7.27;;
6354;SDS011;3210;48.708;9.030;2022-07-22T07:50:05;10.00;;;6.63;;
6354;SDS011;3210;48.708;9.030;2022-07-22T07:52:36;10.03;;;7.07;;
6354;SDS011;3210;48.708;9.030;2022-07-22T07:55:05;12.00;;;6.80;;
6354;SDS011;3210;48.708;9.030;2022-07-22T07:57:33;11.63;;;7.77;;
6354;SDS011;3210;48.708;9.030;2022-07-22T08:00:00;9.20;;;7.53;;
6354;SDS011;3210;48.708;9.030;2022-07-22T08:02:27;12.30;;;9.00;;
6354;SDS011;3210;48.708;9.030;2022-07-22T08:04:54;9.07;;;7.13;;
6354;SDS011;3210;48.708;9.030;2022-07-22T08:07:21;12.40;;;7.07;;
6354;SDS011;3210;48.708;9.030;2022-07-22T08:09:48;11.13;;;7.10;;
6354;SDS011;3210;48.708;9.030;2022-07-22T08:12:16;9.67;;;6.20;;
6354;SDS011;3210;48.708;9.030;2022-07-22T08:14:43;16.33;;;6.57;;
6354;SDS011;3210;48.708;9.030;2022-07-22T08:17:10;9.60;;;6.53;;
6354;SDS011;3210;48.708;9.030;2022-07-22T08:19:36;10.93;;;7.27;;
6354;SDS011;3210;48.708;9.030;2022-07-22T08:22:03;11.23;;;6.83;;
6354;SDS011;3210;48.708;9.030;2022-07-22T08:24:30;10.27;;;5.87;;
6354;SDS011;3210;48.708;9.030;2022-07-22T08:26:57;6.93;;;6.23;;
6354;SDS011;3210;48.708;9.030;2022-07-22T08:29:25;8.20;;;6.10;;
6354;SDS011;3210;48.708;9.030;2022-07-22T08:31:52;9.23;;;6.83;;
6354;SDS011;3210;48.708;9.030;2022-07-22T08:34:19;7.40;;;6.43;;
6354;SDS011;3210;48.708;9.030;2022-07-22T08:36:45;10.37;;;5.90;;
6354;SDS011;3210;48.708;9.030;2022-07-22T08:39:12;7.77;;;6.10;;
6354;SDS011;3210;48.708;9.030;2022-07-22T08:41:39;12.33;;;7.50;;
6354;SDS011;3210;48.708;9.030;2022-07-22T08:44:07;13.07;;;6.20;;
6354;SDS011;3210;48.708;9.030;2022-07-22T08:46:36;11.00;;;6.97;;
6354;SDS011;3210;48.708;9.030;2022-07-22T08:49:03;10.80;;;7.50;;
6354;SDS011;3210;48.708;9.030;2022-07-22T08:51:31;11.63;;;6.10;;
6354;SDS011;3210;48.708;9.030;2022-07-22T08:53:59;11.70;;;7.07;;
6354;SDS011;3210;48.708;9.030;2022-07-22T08:56:26;10.97;;;6.93;;
6354;SDS011;3210;48.708;9.030;2022-07-22T08:58:52;8.60;;;5.83;;
6354;SDS011;3210;48.708;9.030;2022-07-22T09:01:19;6.80;;;5.50;;
6354;SDS011;3210;48.708;9.030;2022-07-22T09:03:48;11.13;;;6.03;;
6354;SDS011;3210;48.708;9.030;2022-07-22T09:06:17;7.50;;;6.20;;
6354;SDS011;3210;48.708;9.030;2022-07-22T09:08:52;10.77;;;7.13;;
6354;SDS011;3210;48.708;9.030;2022-07-22T09:11:21;13.70;;;6.20;;
6354;SDS011;3210;48.708;9.030;2022-07-22T09:13:50;6.63;;;5.83;;
6354;SDS011;3210;48.708;9.030;2022-07-22T09:19:08;7.63;;;5.80;;
6354;SDS011;3210;48.708;9.030;2022-07-22T09:21:36;16.23;;;6.63;;
6354;SDS011;3210;48.708;9.030;2022-07-22T09:24:04;7.93;;;5.83;;
6354;SDS011;3210;48.708;9.030;2022-07-22T09:26:32;7.80;;;4.57;;
6354;SDS011;3210;48.708;9.030;2022-07-22T09:29:00;10.63;;;5.60;;
6354;SDS011;3210;48.708;9.030;2022-07-22T09:31:29;8.60;;;5.22;;
6354;SDS011;3210;48.708;9.030;2022-07-22T09:33:57;9.40;;;5.43;;
6354;SDS011;3210;48.708;9.030;2022-07-22T09:36:25;13.90;;;6.82;;
6354;SDS011;3210;48.708;9.030;2022-07-22T09:38:52;8.73;;;5.57;;
6354;SDS011;3210;48.708;9.030;2022-07-22T09:41:20;9.40;;;5.85;;
6354;SDS011;3210;48.708;9.030;2022-07-22T09:43:47;6.37;;;5.63;;
6354;SDS011;3210;48.708;9.030;2022-07-22T09:46:16;9.07;;;5.47;;
6354;SDS011;3210;48.708;9.030;2022-07-22T09:48:43;12.27;;;5.43;;
6354;SDS011;3210;48.708;9.030;2022-07-22T09:51:10;7.40;;;5.68;;
6354;SDS011;3210;48.708;9.030;2022-07-22T09:53:38;9.00;;;5.30;;
6354;SDS011;3210;48.708;9.030;2022-07-22T09:56:06;12.13;;;5.75;;
6354;SDS011;3210;48.708;9.030;2022-07-22T09:58:33;12.70;;;7.15;;
6354;SDS011;3210;48.708;9.030;2022-07-22T10:01:02;12.65;;;5.78;;
6354;SDS011;3210;48.708;9.030;2022-07-22T10:03:30;10.90;;;6.00;;
6354;SDS011;3210;48.708;9.030;2022-07-22T10:05:58;8.85;;;6.03;;
6354;SDS011;3210;48.708;9.030;2022-07-22T10:08:28;11.52;;;5.70;;
6354;SDS011;3210;48.708;9.030;2022-07-22T10:11:00;5.93;;;5.35;;
6354;SDS011;3210;48.708;9.030;2022-07-22T10:13:29;8.75;;;5.65;;
6354;SDS011;3210;48.708;9.030;2022-07-22T10:15:56;10.07;;;5.57;;
6354;SDS011;3210;48.708;9.030;2022-07-22T10:18:24;6.53;;;5.93;;
6354;SDS011;3210;48.708;9.030;2022-07-22T10:21:01;10.20;;;5.38;;
6354;SDS011;3210;48.708;9.030;2022-07-22T10:23:29;9.38;;;5.60;;
6354;SDS011;3210;48.708;9.030;2022-07-22T10:25:56;7.78;;;5.75;;
6354;SDS011;3210;48.708;9.030;2022-07-22T10:28:26;9.43;;;5.63;;
6354;SDS011;3210;48.708;9.030;2022-07-22T10:31:07;7.13;;;5.13;;
6354;SDS011;3210;48.708;9.030;2022-07-22T10:33:44;7.03;;;6.13;;
6354;SDS011;3210;48.708;9.030;2022-07-22T10:36:11;14.85;;;6.43;;
6354;SDS011;3210;48.708;9.030;2022-07-22T10:38:38;8.40;;;5.72;;
6354;SDS011;3210;48.708;9.030;2022-07-22T10:41:32;6.20;;;4.88;;
6354;SDS011;3210;48.708;9.030;2022-07-22T10:44:00;7.95;;;5.32;;
6354;SDS011;3210;48.708;9.030;2022-07-22T10:49:14;7.82;;;5.90;;
6354;SDS011;3210;48.708;9.030;2022-07-22T10:51:48;8.00;;;5.45;;
6354;SDS011;3210;48.708;9.030;2022-07-22T10:57:37;7.85;;;5.45;;
6354;SDS011;3210;48.708;9.030;2022-07-22T11:00:04;9.32;;;5.85;;
6354;SDS011;3210;48.708;9.030;2022-07-22T11:02:32;14.52;;;7.05;;
6354;SDS011;3210;48.708;9.030;2022-07-22T11:05:00;11.95;;;5.20;;
6354;SDS011;3210;48.708;9.030;2022-07-22T11:07:28;9.75;;;5.80;;
6354;SDS011;3210;48.708;9.030;2022-07-22T11:10:07;8.23;;;4.72;;
6354;SDS011;3210;48.708;9.030;2022-07-22T11:12:37;11.38;;;5.07;;
6354;SDS011;3210;48.708;9.030;2022-07-22T11:15:04;5.60;;;5.10;;
6354;SDS011;3210;48.708;9.030;2022-07-22T11:17:32;10.63;;;5.18;;
6354;SDS011;3210;48.708;9.030;2022-07-22T11:20:00;7.30;;;4.90;;
6354;SDS011;3210;48.708;9.030;2022-07-22T11:22:27;8.85;;;4.30;;
6354;SDS011;3210;48.708;9.030;2022-07-22T11:24:54;6.50;;;3.92;;
6354;SDS011;3210;48.708;9.030;2022-07-22T11:27:22;11.40;;;4.57;;
6354;SDS011;3210;48.708;9.030;2022-07-22T11:29:51;7.05;;;4.55;;
6354;SDS011;3210;48.708;9.030;2022-07-22T11:32:20;5.30;;;4.78;;
6354;SDS011;3210;48.708;9.030;2022-07-22T11:34:47;6.25;;;4.65;;
6354;SDS011;3210;48.708;9.030;2022-07-22T11:37:14;5.70;;;4.28;;
6354;SDS011;3210;48.708;9.030;2022-07-22T11:39:42;5.40;;;4.45;;
6354;SDS011;3210;48.708;9.030;2022-07-22T11:42:09;4.95;;;4.40;;
6354;SDS011;3210;48.708;9.030;2022-07-22T11:44:37;7.53;;;5.82;;
6354;SDS011;3210;48.708;9.030;2022-07-22T11:47:07;7.05;;;4.53;;
6354;SDS011;3210;48.708;9.030;2022-07-22T11:49:35;5.80;;;4.80;;
6354;SDS011;3210;48.708;9.030;2022-07-22T11:52:03;6.10;;;5.35;;
6354;SDS011;3210;48.708;9.030;2022-07-22T11:54:32;6.97;;;5.68;;
6354;SDS011;3210;48.708;9.030;2022-07-22T11:56:59;8.05;;;5.43;;
6354;SDS011;3210;48.708;9.030;2022-07-22T11:59:27;5.50;;;4.38;;
6354;SDS011;3210;48.708;9.030;2022-07-22T12:01:54;7.93;;;4.35;;
6354;SDS011;3210;48.708;9.030;2022-07-22T12:04:23;6.57;;;5.10;;
6354;SDS011;3210;48.708;9.030;2022-07-22T12:06:51;6.70;;;5.57;;
6354;SDS011;3210;48.708;9.030;2022-07-22T12:09:20;7.15;;;4.78;;
6354;SDS011;3210;48.708;9.030;2022-07-22T12:11:48;10.85;;;5.97;;
6354;SDS011;3210;48.708;9.030;2022-07-22T12:14:17;5.80;;;5.03;;
6354;SDS011;3210;48.708;9.030;2022-07-22T12:16:53;6.60;;;5.60;;
6354;SDS011;3210;48.708;9.030;2022-07-22T12:19:21;7.65;;;4.88;;
6354;SDS011;3210;48.708;9.030;2022-07-22T12:21:50;7.72;;;4.97;;
6354;SDS011;3210;48.708;9.030;2022-07-22T12:24:24;5.65;;;4.72;;
6354;SDS011;3210;48.708;9.030;2022-07-22T12:26:52;6.82;;;4.72;;
6354;SDS011;3210;48.708;9.030;2022-07-22T12:29:21;6.22;;;4.50;;
6354;SDS011;3210;48.708;9.030;2022-07-22T12:31:50;6.25;;;5.15;;
6354;SDS011;3210;48.708;9.030;2022-07-22T12:34:29;8.38;;;5.50;;
6354;SDS011;3210;48.708;9.030;2022-07-22T12:37:01;6.28;;;5.25;;
6354;SDS011;3210;48.708;9.030;2022-07-22T12:39:38;11.23;;;5.53;;
6354;SDS011;3210;48.708;9.030;2022-07-22T12:42:15;6.60;;;5.80;;
6354;SDS011;3210;48.708;9.030;2022-07-22T12:44:49;6.65;;;4.90;;
6354;SDS011;3210;48.708;9.030;2022-07-22T12:47:17;5.57;;;4.75;;
6354;SDS011;3210;48.708;9.030;2022-07-22T12:50:16;6.18;;;4.25;;
6354;SDS011;3210;48.708;9.030;2022-07-22T12:52:51;9.13;;;5.28;;
6354;SDS011;3210;48.708;9.030;2022-07-22T12:55:19;6.75;;;5.80;;
6354;SDS011;3210;48.708;9.030;2022-07-22T12:57:46;6.97;;;4.88;;
6354;SDS011;3210;48.708;9.030;2022-07-22T13:00:16;4.72;;;4.32;;
6354;SDS011;3210;48.708;9.030;2022-07-22T13:02:45;6.60;;;5.75;;
6354;SDS011;3210;48.708;9.030;2022-07-22T13:05:11;7.13;;;5.63;;
6354;SDS011;3210;48.708;9.030;2022-07-22T13:07:40;6.70;;;5.82;;
6354;SDS011;3210;48.708;9.030;2022-07-22T13:10:07;7.35;;;4.55;;
6354;SDS011;3210;48.708;9.030;2022-07-22T13:12:35;8.85;;;5.28;;
6354;SDS011;3210;48.708;9.030;2022-07-22T13:15:02;7.35;;;5.82;;
6354;SDS011;3210;48.708;9.030;2022-07-22T13:17:29;7.30;;;5.05;;
6354;SDS011;3210;48.708;9.030;2022-07-22T13:19:56;10.48;;;4.95;;
6354;SDS011;3210;48.708;9.030;2022-07-22T13:22:22;9.88;;;5.22;;
6354;SDS011;3210;48.708;9.030;2022-07-22T13:24:51;6.18;;;4.75;;
6354;SDS011;3210;48.708;9.030;2022-07-22T13:27:17;9.48;;;4.78;;
6354;SDS011;3210;48.708;9.030;2022-07-22T13:29:44;8.25;;;4.45;;
6354;SDS011;3210;48.708;9.030;2022-07-22T13:32:11;4.80;;;4.10;;
6354;SDS011;3210;48.708;9.030;2022-07-22T13:34:38;8.35;;;5.00;;
6354;SDS011;3210;48.708;9.030;2022-07-22T13:37:05;6.93;;;5.07;;
6354;SDS011;3210;48.708;9.030;2022-07-22T13:39:32;10.13;;;5.18;;
6354;SDS011;3210;48.708;9.030;2022-07-22T13:42:00;5.10;;;4.65;;
6354;SDS011;3210;48.708;9.030;2022-07-22T13:44:27;4.90;;;4.40;;
6354;SDS011;3210;48.708;9.030;2022-07-22T13:46:55;6.18;;;4.65;;
6354;SDS011;3210;48.708;9.030;2022-07-22T13:49:22;8.07;;;5.15;;
6354;SDS011;3210;48.708;9.030;2022-07-22T13:51:49;6.53;;;4.50;;
6354;SDS011;3210;48.708;9.030;2022-07-22T13:54:16;9.35;;;5.53;;
6354;SDS011;3210;48.708;9.030;2022-07-22T13:56:43;8.13;;;5.38;;
6354;SDS011;3210;48.708;9.030;2022-07-22T13:59:13;5.22;;;4.72;;
6354;SDS011;3210;48.708;9.030;2022-07-22T14:01:40;10.13;;;5.32;;
6354;SDS011;3210;48.708;9.030;2022-07-22T14:04:08;7.47;;;5.05;;
6354;SDS011;3210;48.708;9.030;2022-07-22T14:06:35;5.63;;;5.00;;
6354;SDS011;3210;48.708;9.030;2022-07-22T14:09:02;5.68;;;4.25;;
6354;SDS011;3210;48.708;9.030;2022-07-22T14:11:29;7.25;;;4.63;;
6354;SDS011;3210;48.708;9.030;2022-07-22T14:13:56;7.35;;;5.20;;
6354;SDS011;3210;48.708;9.030;2022-07-22T14:16:24;6.47;;;4.50;;
6354;SDS011;3210;48.708;9.030;2022-07-22T14:19:00;6.25;;;5.00;;
6354;SDS011;3210;48.708;9.030;2022-07-22T14:21:28;6.22;;;4.97;;
6354;SDS011;3210;48.708;9.030;2022-07-22T14:23:55;8.38;;;5.30;;
6354;SDS011;3210;48.708;9.030;2022-07-22T14:26:22;11.02;;;5.40;;
6354;SDS011;3210;48.708;9.030;2022-07-22T14:28:49;8.43;;;4.88;;
6354;SDS011;3210;48.708;9.030;2022-07-22T14:31:16;11.82;;;5.07;;
6354;SDS011;3210;48.708;9.030;2022-07-22T14:33:44;6.80;;;4.65;;
6354;SDS011;3210;48.708;9.030;2022-07-22T14:36:11;5.65;;;4.82;;
6354;SDS011;3210;48.708;9.030;2022-07-22T14:38:38;5.03;;;4.63;;
6354;SDS011;3210;48.708;9.030;2022-07-22T14:41:04;8.18;;;5.28;;
6354;SDS011;3210;48.708;9.030;2022-07-22T14:43:32;10.57;;;5.70;;
6354;SDS011;3210;48.708;9.030;2022-07-22T14:45:59;10.05;;;5.95;;
6354;SDS011;3210;48.708;9.030;2022-07-22T14:48:26;8.23;;;4.88;;
6354;SDS011;3210;48.708;9.030;2022-07-22T14:50:54;8.82;;;4.82;;
6354;SDS011;3210;48.708;9.030;2022-07-22T14:53:21;6.57;;;4.22;;
6354;SDS011;3210;48.708;9.030;2022-07-22T14:55:48;5.90;;;5.30;;
6354;SDS011;3210;48.708;9.030;2022-07-22T14:58:15;5.60;;;5.05;;
6354;SDS011;3210;48.708;9.030;2022-07-22T15:00:43;4.93;;;4.43;;
6354;SDS011;3210;48.708;9.030;2022-07-22T15:03:10;6.22;;;4.50;;
6354;SDS011;3210;48.708;9.030;2022-07-22T15:05:36;6.45;;;5.15;;
6354;SDS011;3210;48.708;9.030;2022-07-22T15:08:05;10.65;;;5.45;;
6354;SDS011;3210;48.708;9.030;2022-07-22T15:10:32;6.20;;;4.38;;
6354;SDS011;3210;48.708;9.030;2022-07-22T15:12:59;5.85;;;5.35;;
6354;SDS011;3210;48.708;9.030;2022-07-22T15:15:26;6.68;;;5.05;;
6354;SDS011;3210;48.708;9.030;2022-07-22T15:17:53;7.35;;;5.07;;
6354;SDS011;3210;48.708;9.030;2022-07-22T15:20:20;8.13;;;4.78;;
6354;SDS011;3210;48.708;9.030;2022-07-22T15:22:47;9.57;;;5.43;;